Time;durP1;ratioP1;P1;durP2;ratioP2;P2;SDS_P1;SDS_P2;PMS_P1;PMS_P2;Temp;Humidity;BMP_temperature;BMP_pressure;BME280_temperature;BME280_humidity;BME280_pressure;Samples;Min_cycle;Max_cycle;Signal;HPM_P1;HPM_P2
2022/02/23 00:00:34;;;;;;;2.05;1.90;;;;;;;;;;6277284;22;20019;-72
2022/02/23 00:02:59;;;;;;;2.03;1.92;;;;;;;;;;6278158;22;20015;-72
2022/02/23 00:05:25;;;;;;;2.50;2.00;;;;;;;;;;6250593;22;20058;-72
2022/02/23 00:07:51;;;;;;;1.70;1.70;;;;;;;;;;6249479;22;20719;-72
2022/02/23 00:10:17;;;;;;;2.53;2.30;;;;;;;;;;6276800;22;20368;-74
2022/02/23 00:12:43;;;;;;;1.80;1.70;;;;;;;;;;6175469;22;20110;-73
2022/02/23 00:15:11;;;;;;;2.75;2.53;;;;;;;;;;6223910;22;20448;-73
2022/02/23 00:17:37;;;;;;;2.10;2.00;;;;;;;;;;6250046;22;20031;-73
2022/02/23 00:20:04;;;;;;;2.42;2.20;;;;;;;;;;6277599;22;20008;-73
2022/02/23 00:22:32;;;;;;;2.42;2.22;;;;;;;;;;6249467;22;20012;-72
2022/02/23 00:24:58;;;;;;;2.55;2.35;;;;;;;;;;6250162;22;20015;-74
2022/02/23 00:27:24;;;;;;;2.05;1.95;;;;;;;;;;6225830;22;20023;-73
2022/02/23 00:29:50;;;;;;;2.80;2.22;;;;;;;;;;6253145;22;20018;-74
2022/02/23 00:32:16;;;;;;;1.80;1.70;;;;;;;;;;6279802;22;20035;-73
2022/02/23 00:34:42;;;;;;;1.75;1.63;;;;;;;;;;6277931;22;20035;-73
2022/02/23 00:37:08;;;;;;;2.10;1.60;;;;;;;;;;6250039;22;20359;-73
2022/02/23 00:39:33;;;;;;;3.88;1.90;;;;;;;;;;6228669;22;20095;-73
2022/02/23 00:41:59;;;;;;;8.80;2.30;;;;;;;;;;6279666;22;20048;-73
2022/02/23 00:44:25;;;;;;;1.88;1.70;;;;;;;;;;6251959;22;20011;-73
2022/02/23 00:46:51;;;;;;;3.28;1.77;;;;;;;;;;6278359;22;20031;-72
2022/02/23 00:49:17;;;;;;;1.55;1.35;;;;;;;;;;6277907;22;20106;-72
2022/02/23 00:51:43;;;;;;;1.48;1.38;;;;;;;;;;6250259;22;20016;-73
2022/02/23 00:54:09;;;;;;;2.65;2.00;;;;;;;;;;6280812;22;20035;-72
2022/02/23 00:56:35;;;;;;;1.75;1.65;;;;;;;;;;6279030;22;20012;-74
2022/02/23 00:59:01;;;;;;;1.40;1.40;;;;;;;;;;6279499;22;20012;-72
2022/02/23 01:01:27;;;;;;;1.77;1.67;;;;;;;;;;6227234;22;20341;-73
2022/02/23 01:03:53;;;;;;;1.60;1.20;;;;;;;;;;6249313;22;20022;-73
2022/02/23 01:06:19;;;;;;;2.08;1.88;;;;;;;;;;6248834;22;20011;-72
2022/02/23 01:08:44;;;;;;;1.67;1.58;;;;;;;;;;6244481;23;20024;-73
2022/02/23 01:11:11;;;;;;;1.95;1.85;;;;;;;;;;6243013;23;20008;-72
2022/02/23 01:13:36;;;;;;;1.75;1.70;;;;;;;;;;6217898;23;20028;-72
2022/02/23 01:16:03;;;;;;;1.40;1.40;;;;;;;;;;6245266;23;20460;-73
2022/02/23 01:18:29;;;;;;;1.48;1.30;;;;;;;;;;6245559;23;20048;-74
2022/02/23 01:20:55;;;;;;;1.45;1.42;;;;;;;;;;6245412;23;20031;-73
2022/02/23 01:23:21;;;;;;;1.75;1.65;;;;;;;;;;6244849;23;20051;-74
2022/02/23 01:25:47;;;;;;;1.80;1.70;;;;;;;;;;6220214;23;20048;-73
2022/02/23 01:28:16;;;;;;;1.60;1.50;;;;;;;;;;6243721;23;20401;-72
2022/02/23 01:30:42;;;;;;;3.90;1.83;;;;;;;;;;6220071;23;20016;-74
2022/02/23 01:33:13;;;;;;;1.70;1.60;;;;;;;;;;6245076;23;20103;-74
2022/02/23 01:35:40;;;;;;;2.42;1.65;;;;;;;;;;6245260;23;20496;-72
2022/02/23 01:38:06;;;;;;;3.53;2.28;;;;;;;;;;6246039;23;20036;-73
2022/02/23 01:40:32;;;;;;;2.30;1.45;;;;;;;;;;6244429;23;20012;-73
2022/02/23 01:42:57;;;;;;;1.63;1.55;;;;;;;;;;6245026;23;20588;-74
2022/02/23 01:45:23;;;;;;;1.70;1.70;;;;;;;;;;6221055;23;20008;-73
2022/02/23 01:47:50;;;;;;;1.65;1.65;;;;;;;;;;6242868;23;20079;-72
2022/02/23 01:50:16;;;;;;;1.70;1.60;;;;;;;;;;6244132;23;20380;-73
2022/02/23 01:52:42;;;;;;;2.70;1.65;;;;;;;;;;6242453;23;20603;-73
2022/02/23 01:55:08;;;;;;;1.50;1.40;;;;;;;;;;6243705;23;20008;-71
2022/02/23 01:57:34;;;;;;;1.90;1.80;;;;;;;;;;6242156;23;20016;-72
2022/02/23 01:59:59;;;;;;;2.95;2.13;;;;;;;;;;6244496;23;20496;-72
2022/02/23 02:02:26;;;;;;;1.88;1.77;;;;;;;;;;6192756;23;20020;-73
2022/02/23 02:04:52;;;;;;;1.65;1.55;;;;;;;;;;6242207;23;20015;-73
2022/02/23 02:07:18;;;;;;;1.50;1.48;;;;;;;;;;6242641;23;20043;-71
2022/02/23 02:09:44;;;;;;;1.52;1.42;;;;;;;;;;6242608;23;20020;-71
2022/02/23 02:12:10;;;;;;;1.88;1.77;;;;;;;;;;6243959;23;20020;-72
2022/02/23 02:14:36;;;;;;;1.60;1.48;;;;;;;;;;6242396;23;20092;-73
2022/02/23 02:17:02;;;;;;;1.45;1.45;;;;;;;;;;6243694;23;20345;-71
2022/02/23 02:19:27;;;;;;;1.88;1.77;;;;;;;;;;6241819;23;20133;-76
2022/02/23 02:21:56;;;;;;;1.70;1.60;;;;;;;;;;6243169;23;20004;-72
2022/02/23 02:24:23;;;;;;;1.30;1.25;;;;;;;;;;6245252;23;20020;-72
2022/02/23 02:26:49;;;;;;;1.77;1.67;;;;;;;;;;6244420;23;20012;-73
2022/02/23 02:29:14;;;;;;;1.75;1.65;;;;;;;;;;6245176;23;20019;-72
2022/02/23 02:31:40;;;;;;;1.75;1.65;;;;;;;;;;6244569;23;20009;-72
2022/02/23 02:34:06;;;;;;;2.45;1.85;;;;;;;;;;6246059;22;20008;-73
2022/02/23 02:36:32;;;;;;;1.48;1.40;;;;;;;;;;6246244;23;20012;-73
2022/02/23 02:38:58;;;;;;;1.33;1.33;;;;;;;;;;6247824;23;20401;-73
2022/02/23 02:41:24;;;;;;;1.60;1.60;;;;;;;;;;6218672;23;20067;-72
2022/02/23 02:43:50;;;;;;;4.13;1.42;;;;;;;;;;6245120;23;20012;-73
2022/02/23 02:46:16;;;;;;;1.65;1.55;;;;;;;;;;6245195;23;20012;-73
2022/02/23 02:48:41;;;;;;;2.17;1.85;;;;;;;;;;6243337;23;20012;-73
2022/02/23 02:51:07;;;;;;;1.67;1.58;;;;;;;;;;6245465;22;20043;-73
2022/02/23 02:53:33;;;;;;;1.92;1.73;;;;;;;;;;6242950;23;20024;-72
2022/02/23 02:55:59;;;;;;;1.60;1.50;;;;;;;;;;6243349;23;20018;-72
2022/02/23 02:58:25;;;;;;;1.80;1.70;;;;;;;;;;6246290;23;20018;-73
2022/02/23 03:00:50;;;;;;;1.17;1.17;;;;;;;;;;6223049;23;20016;-73
2022/02/23 03:03:16;;;;;;;1.88;1.80;;;;;;;;;;6252025;22;20048;-72
2022/02/23 03:05:42;;;;;;;1.45;1.25;;;;;;;;;;6245115;22;20008;-73
2022/02/23 03:08:08;;;;;;;1.27;1.27;;;;;;;;;;6247183;22;20019;-72
2022/02/23 03:10:34;;;;;;;1.38;1.20;;;;;;;;;;6244037;23;20012;-73
2022/02/23 03:13:00;;;;;;;1.77;1.77;;;;;;;;;;6246201;23;20024;-73
2022/02/23 03:15:28;;;;;;;2.60;1.65;;;;;;;;;;6245315;23;20079;-73
2022/02/23 03:17:53;;;;;;;2.80;1.83;;;;;;;;;;6246470;23;20015;-72
2022/02/23 03:20:19;;;;;;;1.70;1.60;;;;;;;;;;6247189;23;20059;-72
2022/02/23 03:22:46;;;;;;;3.42;1.70;;;;;;;;;;6246743;23;20016;-73
2022/02/23 03:25:12;;;;;;;1.92;1.73;;;;;;;;;;6247688;23;20008;-72
2022/02/23 03:27:38;;;;;;;1.88;1.77;;;;;;;;;;6245354;23;20400;-72
2022/02/23 03:30:04;;;;;;;2.28;2.17;;;;;;;;;;6219838;23;20449;-72
2022/02/23 03:32:30;;;;;;;2.03;1.92;;;;;;;;;;6243950;23;20453;-73
2022/02/23 03:34:56;;;;;;;2.15;1.95;;;;;;;;;;6243937;23;20067;-72
2022/02/23 03:37:22;;;;;;;5.88;1.90;;;;;;;;;;6245700;23;20011;-72
2022/02/23 03:39:49;;;;;;;1.83;1.73;;;;;;;;;;6245732;23;20011;-73
2022/02/23 03:42:15;;;;;;;2.20;2.10;;;;;;;;;;6244266;23;20051;-72
2022/02/23 03:44:41;;;;;;;2.00;1.90;;;;;;;;;;6245834;23;20012;-73
2022/02/23 03:47:08;;;;;;;2.03;1.92;;;;;;;;;;6251777;23;20015;-74
2022/02/23 03:49:33;;;;;;;2.33;2.22;;;;;;;;;;6251962;23;20059;-74
2022/02/23 03:51:59;;;;;;;1.65;1.58;;;;;;;;;;6250609;23;20486;-73
2022/02/23 03:54:25;;;;;;;1.98;1.88;;;;;;;;;;6254222;23;20015;-73
2022/02/23 03:56:51;;;;;;;5.13;2.33;;;;;;;;;;6251005;23;20394;-74
2022/02/23 03:59:17;;;;;;;2.10;2.00;;;;;;;;;;6258051;23;20019;-74
2022/02/23 04:01:45;;;;;;;5.03;2.33;;;;;;;;;;6255490;23;20008;-72
2022/02/23 04:04:11;;;;;;;1.90;1.80;;;;;;;;;;6251702;23;20422;-73
2022/02/23 04:06:37;;;;;;;2.03;1.80;;;;;;;;;;6249297;23;20012;-72
2022/02/23 04:09:04;;;;;;;5.35;2.00;;;;;;;;;;6249977;22;20047;-72
2022/02/23 04:11:29;;;;;;;2.33;2.22;;;;;;;;;;6248485;23;20099;-72
2022/02/23 04:13:55;;;;;;;5.50;2.30;;;;;;;;;;6246632;22;20052;-72
2022/02/23 04:16:21;;;;;;;3.95;2.40;;;;;;;;;;6249246;23;20019;-73
2022/02/23 04:18:47;;;;;;;3.78;1.77;;;;;;;;;;6248032;23;20012;-74
2022/02/23 04:21:13;;;;;;;2.33;2.08;;;;;;;;;;6247783;23;20363;-73
2022/02/23 04:23:39;;;;;;;2.05;1.95;;;;;;;;;;6219322;23;20023;-70
2022/02/23 04:26:05;;;;;;;3.40;2.47;;;;;;;;;;6244385;23;20016;-72
2022/02/23 04:28:31;;;;;;;2.50;2.40;;;;;;;;;;6242480;23;20012;-71
2022/02/23 04:30:57;;;;;;;2.03;1.92;;;;;;;;;;6242944;23;20338;-71
2022/02/23 04:33:23;;;;;;;2.80;2.60;;;;;;;;;;6216548;23;20023;-70
2022/02/23 04:35:49;;;;;;;2.30;2.20;;;;;;;;;;6241508;23;20016;-70
2022/02/23 04:38:15;;;;;;;2.30;2.20;;;;;;;;;;6242691;22;20019;-72
2022/02/23 04:40:43;;;;;;;3.80;1.80;;;;;;;;;;6243444;23;20012;-72
2022/02/23 04:43:12;;;;;;;4.15;2.85;;;;;;;;;;6245464;23;20057;-72
2022/02/23 04:45:38;;;;;;;2.58;2.38;;;;;;;;;;6244749;23;20016;-72
2022/02/23 04:48:04;;;;;;;6.10;2.95;;;;;;;;;;6243746;23;20008;-71
2022/02/23 04:50:30;;;;;;;3.10;2.90;;;;;;;;;;6213512;23;20102;-72
2022/02/23 04:52:56;;;;;;;2.50;2.30;;;;;;;;;;6237604;23;20027;-71
2022/02/23 04:55:22;;;;;;;2.00;1.90;;;;;;;;;;6238771;23;20012;-71
2022/02/23 04:57:48;;;;;;;7.03;2.83;;;;;;;;;;6238522;23;20123;-71
2022/02/23 05:00:14;;;;;;;2.58;2.38;;;;;;;;;;6240010;23;20053;-73
2022/02/23 05:02:40;;;;;;;3.08;2.42;;;;;;;;;;6239433;23;20388;-73
2022/02/23 05:05:07;;;;;;;6.28;3.47;;;;;;;;;;6241016;23;20023;-72
2022/02/23 05:07:36;;;;;;;3.90;3.25;;;;;;;;;;6240637;23;20099;-72
2022/02/23 05:10:02;;;;;;;4.18;3.38;;;;;;;;;;6239256;23;20024;-72
2022/02/23 05:12:28;;;;;;;2.85;2.65;;;;;;;;;;6213653;23;20028;-72
2022/02/23 05:14:54;;;;;;;2.70;2.50;;;;;;;;;;6238620;23;20460;-72
2022/02/23 05:17:20;;;;;;;3.65;2.88;;;;;;;;;;6213800;23;20016;-71
2022/02/23 05:19:46;;;;;;;2.47;1.90;;;;;;;;;;6241083;23;20008;-73
2022/02/23 05:22:12;;;;;;;3.25;3.03;;;;;;;;;;6213377;23;20421;-72
2022/02/23 05:24:38;;;;;;;4.13;3.50;;;;;;;;;;6240814;23;20012;-72
2022/02/23 05:27:04;;;;;;;7.82;3.92;;;;;;;;;;6239296;23;20020;-73
2022/02/23 05:29:33;;;;;;;3.17;2.97;;;;;;;;;;6240682;23;20468;-73
2022/02/23 05:31:59;;;;;;;4.13;3.83;;;;;;;;;;6241186;23;20135;-72
2022/02/23 05:34:25;;;;;;;3.30;3.10;;;;;;;;;;6240946;23;20035;-72
2022/02/23 05:36:50;;;;;;;2.83;2.72;;;;;;;;;;6240850;23;20842;-73
2022/02/23 05:39:16;;;;;;;3.30;3.10;;;;;;;;;;6239553;23;20016;-73
2022/02/23 05:41:42;;;;;;;6.00;4.30;;;;;;;;;;6240115;23;20016;-72
2022/02/23 05:44:08;;;;;;;2.25;2.13;;;;;;;;;;6239033;23;20527;-72
2022/02/23 05:46:34;;;;;;;4.82;4.05;;;;;;;;;;6240560;22;20066;-72
2022/02/23 05:49:00;;;;;;;3.22;3.03;;;;;;;;;;6239317;23;20048;-71
2022/02/23 05:51:27;;;;;;;2.67;2.53;;;;;;;;;;6238111;23;20015;-73
2022/02/23 05:53:53;;;;;;;3.13;2.92;;;;;;;;;;6213525;23;20369;-73
2022/02/23 05:56:19;;;;;;;3.58;3.35;;;;;;;;;;6240260;23;20012;-72
2022/02/23 05:58:45;;;;;;;3.60;3.30;;;;;;;;;;6240079;23;20016;-72
2022/02/23 06:01:11;;;;;;;2.30;2.20;;;;;;;;;;6238872;23;20008;-72
2022/02/23 06:03:37;;;;;;;3.80;3.50;;;;;;;;;;6240901;22;20008;-73
2022/02/23 06:06:03;;;;;;;4.55;4.13;;;;;;;;;;6240938;22;20040;-73
2022/02/23 07:52:11;;;;;;;2.00;1.90;;;;;;;;;;6236395;23;20024;-71
2022/02/23 07:54:37;;;;;;;1.58;1.52;;;;;;;;;;6236351;23;20012;-71
2022/02/23 07:57:03;;;;;;;2.55;2.20;;;;;;;;;;6235657;23;20047;-71
2022/02/23 07:59:29;;;;;;;3.20;2.17;;;;;;;;;;6212127;23;20016;-70
2022/02/23 08:01:55;;;;;;;1.77;1.75;;;;;;;;;;6238996;23;20018;-71
2022/02/23 08:04:21;;;;;;;1.73;1.65;;;;;;;;;;6185078;23;20047;-72
2022/02/23 08:06:47;;;;;;;1.85;1.75;;;;;;;;;;6239320;23;20083;-72
2022/02/23 08:09:13;;;;;;;1.45;1.35;;;;;;;;;;6213804;23;20483;-71
2022/02/23 08:11:41;;;;;;;4.18;1.45;;;;;;;;;;6211096;23;20012;-72
2022/02/23 08:14:07;;;;;;;1.98;1.80;;;;;;;;;;6214727;23;20012;-71
2022/02/23 08:19:34;;;;;;;1.63;1.52;;;;;;;;;;6214176;23;20012;-71
2022/02/23 08:22:03;;;;;;;1.73;1.63;;;;;;;;;;6211604;23;20019;-72
2022/02/23 08:24:29;;;;;;;1.73;1.63;;;;;;;;;;6214685;23;20012;-72
2022/02/23 08:26:56;;;;;;;1.98;1.88;;;;;;;;;;6240999;23;20066;-72
2022/02/23 08:29:22;;;;;;;2.08;1.98;;;;;;;;;;6241669;23;20011;-72
2022/02/23 08:31:48;;;;;;;2.13;2.03;;;;;;;;;;6241043;23;20016;-72
2022/02/23 08:34:14;;;;;;;2.45;2.25;;;;;;;;;;6215398;23;20099;-71
2022/02/23 08:36:40;;;;;;;2.38;2.17;;;;;;;;;;6242489;23;20247;-72
2022/02/23 08:39:07;;;;;;;2.00;1.90;;;;;;;;;;6242789;23;20062;-72
2022/02/23 08:41:33;;;;;;;1.50;1.50;;;;;;;;;;6242424;23;20008;-72
2022/02/23 08:44:00;;;;;;;1.70;1.60;;;;;;;;;;6214592;23;20578;-72
2022/02/23 08:46:26;;;;;;;1.73;1.65;;;;;;;;;;6241517;23;20070;-72
2022/02/23 08:48:52;;;;;;;2.22;2.13;;;;;;;;;;6241294;23;20022;-72
2022/02/23 08:51:18;;;;;;;3.00;1.95;;;;;;;;;;6214125;23;20031;-71
2022/02/23 08:53:44;;;;;;;1.90;1.80;;;;;;;;;;6240700;23;20024;-71
2022/02/23 08:56:12;;;;;;;1.92;1.83;;;;;;;;;;6239535;23;20012;-71
2022/02/23 08:58:38;;;;;;;2.30;2.13;;;;;;;;;;6240341;23;20476;-71
2022/02/23 09:01:04;;;;;;;1.80;1.70;;;;;;;;;;6214631;23;20019;-71
2022/02/23 09:03:30;;;;;;;1.25;1.25;;;;;;;;;;6188935;23;20368;-72
2022/02/23 09:05:55;;;;;;;2.90;1.80;;;;;;;;;;6240521;23;20118;-71
2022/02/23 09:08:21;;;;;;;2.30;2.10;;;;;;;;;;6212696;23;20019;-71
2022/02/23 09:10:48;;;;;;;2.15;2.00;;;;;;;;;;6240518;23;20012;-72
2022/02/23 09:13:13;;;;;;;2.22;2.10;;;;;;;;;;6213595;23;20036;-73
2022/02/23 09:15:39;;;;;;;2.08;1.98;;;;;;;;;;6240811;23;20091;-72
2022/02/23 09:18:05;;;;;;;5.88;1.60;;;;;;;;;;6240625;23;20510;-72
2022/02/23 09:20:33;;;;;;;1.60;1.50;;;;;;;;;;6212951;23;20040;-73
2022/02/23 09:22:59;;;;;;;1.95;1.52;;;;;;;;;;6186434;23;20115;-73
2022/02/23 09:25:24;;;;;;;1.67;1.65;;;;;;;;;;6186308;23;20567;-74
2022/02/23 09:27:51;;;;;;;1.95;1.85;;;;;;;;;;6237687;23;20016;-74
2022/02/23 09:30:17;;;;;;;1.92;1.83;;;;;;;;;;6239320;23;20403;-74
2022/02/23 09:32:42;;;;;;;2.08;1.98;;;;;;;;;;6236865;23;20024;-74
2022/02/23 09:35:09;;;;;;;2.15;1.95;;;;;;;;;;6238912;23;20012;-74
2022/02/23 09:37:35;;;;;;;1.75;1.65;;;;;;;;;;6237685;23;20012;-75
2022/02/23 09:40:01;;;;;;;1.85;1.75;;;;;;;;;;6188276;23;20118;-73
2022/02/23 09:42:28;;;;;;;1.70;1.63;;;;;;;;;;6239586;23;20008;-74
2022/02/23 09:44:59;;;;;;;1.50;1.50;;;;;;;;;;6212457;23;20012;-73
2022/02/23 09:47:25;;;;;;;1.77;1.67;;;;;;;;;;6239887;23;20058;-74
2022/02/23 09:49:54;;;;;;;1.55;1.52;;;;;;;;;;6239989;23;20014;-73
2022/02/23 09:52:24;;;;;;;2.20;2.10;;;;;;;;;;6239500;23;20050;-74
2022/02/23 09:54:50;;;;;;;2.33;2.15;;;;;;;;;;6239842;23;20008;-72
2022/02/23 09:57:17;;;;;;;1.48;1.48;;;;;;;;;;6239041;23;20533;-73
2022/02/23 09:59:44;;;;;;;1.70;1.70;;;;;;;;;;6240366;23;20018;-73
2022/02/23 10:02:10;;;;;;;1.83;1.75;;;;;;;;;;6240492;23;20469;-72
2022/02/23 10:04:36;;;;;;;1.60;1.60;;;;;;;;;;6239073;23;20474;-71
2022/02/23 10:07:04;;;;;;;1.42;1.42;;;;;;;;;;6239861;23;20016;-71
2022/02/23 10:09:30;;;;;;;1.90;1.80;;;;;;;;;;6211906;23;20020;-72
2022/02/23 10:11:56;;;;;;;1.60;1.50;;;;;;;;;;6212747;23;20122;-72
2022/02/23 10:14:22;;;;;;;1.83;1.73;;;;;;;;;;6239851;23;20468;-73
2022/02/23 10:16:48;;;;;;;1.38;1.38;;;;;;;;;;6187615;23;20008;-73
2022/02/23 10:19:17;;;;;;;1.70;1.60;;;;;;;;;;6240157;23;20414;-73
2022/02/23 10:21:46;;;;;;;1.88;1.63;;;;;;;;;;6211847;23;20016;-72
2022/02/23 10:24:19;;;;;;;3.17;2.10;;;;;;;;;;6213072;23;20184;-71
2022/02/23 10:26:54;;;;;;;2.10;2.00;;;;;;;;;;6239158;23;20012;-72
2022/02/23 10:29:27;;;;;;;1.65;1.65;;;;;;;;;;6211209;23;20019;-72
2022/02/23 10:31:52;;;;;;;2.20;2.10;;;;;;;;;;6212153;23;20019;-72
2022/02/23 10:34:20;;;;;;;2.15;2.05;;;;;;;;;;6211481;23;20028;-71
2022/02/23 10:36:56;;;;;;;1.98;1.88;;;;;;;;;;6212525;23;20364;-71
2022/02/23 10:39:25;;;;;;;2.20;2.10;;;;;;;;;;6212683;23;20456;-71
2022/02/23 10:42:01;;;;;;;5.05;1.48;;;;;;;;;;6188539;23;20039;-72
2022/02/23 10:44:29;;;;;;;1.60;1.60;;;;;;;;;;6239438;23;20008;-73
2022/02/23 10:46:55;;;;;;;2.78;2.33;;;;;;;;;;6238854;23;20012;-73
2022/02/23 10:49:21;;;;;;;2.20;2.10;;;;;;;;;;6212089;23;20012;-72
2022/02/23 10:51:48;;;;;;;2.38;2.28;;;;;;;;;;6187149;23;20028;-72
2022/02/23 10:54:14;;;;;;;1.77;1.67;;;;;;;;;;6212818;23;20062;-72
2022/02/23 10:56:41;;;;;;;1.70;1.60;;;;;;;;;;6212193;23;20015;-73
2022/02/23 10:59:07;;;;;;;2.30;2.00;;;;;;;;;;6238665;23;20047;-73
2022/02/23 11:01:33;;;;;;;2.72;1.92;;;;;;;;;;6212641;23;20012;-72
2022/02/23 11:03:59;;;;;;;1.90;1.80;;;;;;;;;;6211991;23;20086;-72
2022/02/23 11:06:25;;;;;;;2.33;1.80;;;;;;;;;;6187594;23;20353;-72
2022/02/23 11:08:52;;;;;;;1.70;1.60;;;;;;;;;;6212591;23;20019;-73
2022/02/23 11:11:18;;;;;;;2.20;2.10;;;;;;;;;;6238563;23;20023;-73
2022/02/23 11:13:44;;;;;;;1.40;1.40;;;;;;;;;;6239194;23;20023;-73
2022/02/23 11:16:11;;;;;;;1.60;1.50;;;;;;;;;;6188040;23;20008;-73
2022/02/23 11:18:37;;;;;;;1.55;1.50;;;;;;;;;;6212580;23;20012;-73
2022/02/23 11:21:02;;;;;;;0.98;0.98;;;;;;;;;;6239687;23;20039;-73
2022/02/23 11:23:28;;;;;;;1.40;1.40;;;;;;;;;;6238605;23;20016;-72
2022/02/23 11:25:55;;;;;;;2.20;2.10;;;;;;;;;;6212111;23;20586;-72
2022/02/23 11:28:30;;;;;;;2.03;1.92;;;;;;;;;;6239605;23;20484;-72
2022/02/23 11:31:04;;;;;;;1.52;1.50;;;;;;;;;;6186976;23;20724;-71
2022/02/23 11:33:49;;;;;;;1.90;1.80;;;;;;;;;;6212030;23;20031;-72
2022/02/23 11:36:19;;;;;;;1.77;1.75;;;;;;;;;;6238533;23;20016;-72
2022/02/23 11:38:48;;;;;;;1.60;1.50;;;;;;;;;;6189200;23;20094;-73
2022/02/23 11:41:26;;;;;;;2.30;2.20;;;;;;;;;;6241570;23;20472;-73
2022/02/23 11:44:07;;;;;;;1.75;1.65;;;;;;;;;;6241797;23;20452;-72
2022/02/23 11:46:34;;;;;;;2.33;2.22;;;;;;;;;;6214625;23;20401;-73
2022/02/23 11:49:02;;;;;;;1.98;1.80;;;;;;;;;;6188501;23;20486;-72
2022/02/23 11:51:35;;;;;;;1.92;1.80;;;;;;;;;;6184295;23;20123;-72
2022/02/23 11:54:01;;;;;;;1.75;1.65;;;;;;;;;;6210277;23;20016;-72
2022/02/23 11:56:38;;;;;;;1.60;1.50;;;;;;;;;;6211179;23;20083;-72
2022/02/23 11:59:06;;;;;;;1.90;1.70;;;;;;;;;;6210688;23;20073;-72
2022/02/23 12:01:47;;;;;;;3.75;1.40;;;;;;;;;;6183740;23;20082;-71
2022/02/23 12:04:14;;;;;;;1.30;1.30;;;;;;;;;;6210154;23;20459;-72
2022/02/23 12:07:09;;;;;;;1.48;1.48;;;;;;;;;;6211824;23;20025;-73
2022/02/23 12:10:15;;;;;;;1.70;1.50;;;;;;;;;;6178312;23;20071;-73
2022/02/23 12:12:45;;;;;;;1.30;1.30;;;;;;;;;;6214298;23;20037;-73
2022/02/23 12:15:29;;;;;;;1.40;1.40;;;;;;;;;;6210364;23;20095;-72
2022/02/23 12:17:59;;;;;;;1.60;1.50;;;;;;;;;;6183550;23;20017;-72
2022/02/23 12:20:37;;;;;;;1.20;1.20;;;;;;;;;;6210128;23;20016;-72
2022/02/23 12:23:06;;;;;;;1.33;1.33;;;;;;;;;;6209490;23;20055;-71
2022/02/23 12:25:44;;;;;;;1.20;1.20;;;;;;;;;;6208945;23;20013;-71
2022/02/23 12:28:11;;;;;;;1.25;1.25;;;;;;;;;;6210215;23;20461;-72
2022/02/23 12:30:38;;;;;;;1.90;1.80;;;;;;;;;;6209948;23;20421;-73
2022/02/23 12:33:04;;;;;;;1.50;1.50;;;;;;;;;;6209277;23;20111;-73
2022/02/23 12:35:30;;;;;;;1.90;1.80;;;;;;;;;;6208983;23;20078;-72
2022/02/23 12:37:56;;;;;;;1.52;1.52;;;;;;;;;;6182707;23;20061;-72
2022/02/23 12:40:22;;;;;;;1.45;1.45;;;;;;;;;;6208741;23;20107;-72
2022/02/23 12:42:49;;;;;;;4.80;1.65;;;;;;;;;;6208606;23;20048;-73
2022/02/23 12:45:15;;;;;;;1.70;1.70;;;;;;;;;;6208896;23;20476;-73
2022/02/23 12:47:53;;;;;;;1.48;1.45;;;;;;;;;;6209744;23;20523;-70
2022/02/23 12:50:24;;;;;;;1.13;1.13;;;;;;;;;;6212568;23;20040;-71
2022/02/23 12:52:51;;;;;;;1.30;1.30;;;;;;;;;;6189402;23;20114;-71
2022/02/23 12:55:19;;;;;;;1.35;1.35;;;;;;;;;;6216475;23;20035;-72
2022/02/23 12:57:52;;;;;;;1.40;1.40;;;;;;;;;;6239643;23;20531;-71
2022/02/23 13:00:29;;;;;;;1.27;1.27;;;;;;;;;;6240513;23;20427;-73
2022/02/23 13:02:56;;;;;;;1.33;1.33;;;;;;;;;;6217127;23;20019;-73
2022/02/23 13:05:27;;;;;;;1.40;1.33;;;;;;;;;;6214776;23;20034;-73
2022/02/23 13:07:53;;;;;;;1.67;1.58;;;;;;;;;;6213353;23;20016;-72
2022/02/23 13:10:19;;;;;;;1.90;1.80;;;;;;;;;;6241310;23;20475;-72
2022/02/23 13:12:45;;;;;;;1.85;1.70;;;;;;;;;;6213676;23;20023;-72
2022/02/23 13:15:12;;;;;;;1.40;1.40;;;;;;;;;;6213528;23;20495;-72
2022/02/23 13:17:38;;;;;;;1.45;1.35;;;;;;;;;;6240396;23;20016;-72
2022/02/23 13:20:04;;;;;;;1.40;1.30;;;;;;;;;;6171017;23;20528;-72
2022/02/23 13:22:30;;;;;;;1.70;1.60;;;;;;;;;;6205602;23;20100;-72
2022/02/23 13:25:03;;;;;;;2.42;2.25;;;;;;;;;;6239406;23;20066;-71
2022/02/23 13:27:30;;;;;;;1.75;1.67;;;;;;;;;;6238517;23;20023;-72
2022/02/23 13:30:01;;;;;;;2.03;1.80;;;;;;;;;;6238304;23;20012;-72
2022/02/23 13:32:32;;;;;;;1.50;1.40;;;;;;;;;;6212835;23;20027;-72
2022/02/23 13:35:02;;;;;;;1.60;1.60;;;;;;;;;;6238946;23;20349;-71
2022/02/23 13:37:36;;;;;;;1.80;1.70;;;;;;;;;;6213585;23;20341;-71
2022/02/23 13:40:08;;;;;;;1.60;1.50;;;;;;;;;;6212054;23;20018;-71
2022/02/23 13:42:37;;;;;;;1.55;1.50;;;;;;;;;;6213311;23;20047;-71
2022/02/23 13:45:46;;;;;;;1.10;1.10;;;;;;;;;;6240007;23;20042;-73
2022/02/23 13:49:04;;;;;;;;;;;;;;;;;;;;;
2022/02/23 13:51:43;;;;;;;1.60;1.50;;;;;;;;;;6084992;23;20316;-70
2022/02/23 13:54:09;;;;;;;1.77;1.67;;;;;;;;;;6086586;23;20022;-70
2022/02/23 13:56:41;;;;;;;1.65;1.65;;;;;;;;;;6172010;23;20024;-70
2022/02/23 13:59:10;;;;;;;1.48;1.40;;;;;;;;;;6208309;23;20044;-70
2022/02/23 14:01:36;;;;;;;1.40;1.40;;;;;;;;;;6181410;23;20063;-70
2022/02/23 14:04:10;;;;;;;1.55;1.55;;;;;;;;;;6205520;23;20078;-70
2022/02/23 14:06:36;;;;;;;2.00;1.85;;;;;;;;;;6207478;23;20043;-71
2022/02/23 14:12:14;;;;;;;2.08;1.98;;;;;;;;;;6208496;23;20043;-71
2022/02/23 14:14:44;;;;;;;1.60;1.50;;;;;;;;;;6208186;23;20020;-71
2022/02/23 14:17:29;;;;;;;1.60;1.50;;;;;;;;;;6182346;23;20013;-70
2022/02/23 14:19:55;;;;;;;1.83;1.73;;;;;;;;;;6181345;23;20013;-70
2022/02/23 14:22:22;;;;;;;1.67;1.63;;;;;;;;;;6205694;23;20044;-70
2022/02/23 14:24:59;;;;;;;1.90;1.80;;;;;;;;;;6208199;23;20009;-69
2022/02/23 14:27:28;;;;;;;1.13;1.13;;;;;;;;;;6207601;23;20040;-70
2022/02/23 14:29:55;;;;;;;1.67;1.27;;;;;;;;;;6205606;23;20484;-70
2022/02/23 14:32:21;;;;;;;1.77;1.50;;;;;;;;;;6208835;23;20013;-70
2022/02/23 14:34:48;;;;;;;1.40;1.40;;;;;;;;;;6208615;23;20016;-71
2022/02/23 14:37:14;;;;;;;1.73;1.63;;;;;;;;;;6208830;23;20015;-70
2022/02/23 14:39:40;;;;;;;1.67;1.58;;;;;;;;;;6206865;23;20040;-70
2022/02/23 14:42:07;;;;;;;2.08;1.98;;;;;;;;;;6207199;23;20327;-69
2022/02/23 14:44:35;;;;;;;1.42;1.42;;;;;;;;;;6209045;23;20012;-71
2022/02/23 14:47:02;;;;;;;1.38;1.38;;;;;;;;;;6209112;23;20032;-71
2022/02/23 14:49:28;;;;;;;1.92;1.83;;;;;;;;;;6206946;23;20448;-71
2022/02/23 14:51:54;;;;;;;1.70;1.65;;;;;;;;;;6205297;23;20027;-72
2022/02/23 14:54:20;;;;;;;1.83;1.73;;;;;;;;;;6206862;23;20055;-72
2022/02/23 14:56:46;;;;;;;1.70;1.60;;;;;;;;;;6208369;23;20066;-72
2022/02/23 14:59:12;;;;;;;1.10;1.10;;;;;;;;;;6208954;23;20012;-73
2022/02/23 15:01:39;;;;;;;1.60;1.50;;;;;;;;;;6208211;23;20015;-73
2022/02/23 15:04:05;;;;;;;1.45;1.38;;;;;;;;;;6206048;23;20012;-72
2022/02/23 15:06:34;;;;;;;1.98;1.88;;;;;;;;;;6208480;23;20008;-72
2022/02/23 15:09:03;;;;;;;1.75;1.58;;;;;;;;;;6185751;23;20020;-73
2022/02/23 15:11:29;;;;;;;1.52;1.48;;;;;;;;;;6209375;23;20103;-73
2022/02/23 15:13:56;;;;;;;1.70;1.60;;;;;;;;;;6211948;23;20051;-74
2022/02/23 15:16:22;;;;;;;1.60;1.50;;;;;;;;;;6210345;23;20438;-74
2022/02/23 15:18:50;;;;;;;2.40;2.30;;;;;;;;;;6184583;23;20032;-73
2022/02/23 15:21:16;;;;;;;2.40;2.25;;;;;;;;;;6158773;23;20015;-73
2022/02/23 15:23:42;;;;;;;2.20;1.92;;;;;;;;;;6208619;23;20016;-72
2022/02/23 15:26:10;;;;;;;3.05;1.80;;;;;;;;;;6211195;23;20012;-72
2022/02/23 15:28:36;;;;;;;1.80;1.70;;;;;;;;;;6207841;23;20012;-73
2022/02/23 15:31:01;;;;;;;1.80;1.70;;;;;;;;;;6209303;23;20055;-72
2022/02/23 15:33:28;;;;;;;1.20;1.20;;;;;;;;;;6184351;23;20028;-72
2022/02/23 15:35:54;;;;;;;2.03;1.92;;;;;;;;;;6208743;23;20009;-72
2022/02/23 15:38:20;;;;;;;1.77;1.77;;;;;;;;;;6210801;23;20031;-72
2022/02/23 15:40:46;;;;;;;1.42;1.38;;;;;;;;;;6209005;23;20009;-72
2022/02/23 15:43:12;;;;;;;1.60;1.50;;;;;;;;;;6209154;23;20044;-72
2022/02/23 15:45:41;;;;;;;1.48;1.48;;;;;;;;;;6208580;23;20013;-72
2022/02/23 15:48:07;;;;;;;1.60;1.60;;;;;;;;;;6208852;23;20059;-73
2022/02/23 15:50:34;;;;;;;1.13;1.13;;;;;;;;;;6213008;23;20024;-71
2022/02/23 15:53:00;;;;;;;2.60;1.50;;;;;;;;;;6239979;23;20028;-70
2022/02/23 15:55:28;;;;;;;1.58;1.58;;;;;;;;;;6241631;23;20363;-71
2022/02/23 15:57:54;;;;;;;1.95;1.85;;;;;;;;;;6214365;23;20012;-71
2022/02/23 16:00:19;;;;;;;2.08;1.90;;;;;;;;;;6214427;23;20364;-72
2022/02/23 16:02:46;;;;;;;1.63;1.63;;;;;;;;;;6213097;23;20559;-71
2022/02/23 16:05:12;;;;;;;2.22;2.13;;;;;;;;;;6212432;23;20012;-71
2022/02/23 16:07:38;;;;;;;1.67;1.65;;;;;;;;;;6240731;23;20012;-71
2022/02/23 16:10:04;;;;;;;2.20;2.00;;;;;;;;;;6241672;23;20012;-74
2022/02/23 16:12:31;;;;;;;1.40;1.40;;;;;;;;;;6240505;23;20444;-71
2022/02/23 16:14:57;;;;;;;1.38;1.38;;;;;;;;;;6162854;23;20012;-72
2022/02/23 16:17:23;;;;;;;1.92;1.75;;;;;;;;;;6213643;23;20035;-72
2022/02/23 16:19:48;;;;;;;1.58;1.58;;;;;;;;;;6238567;23;20491;-72
2022/02/23 16:22:14;;;;;;;1.50;1.50;;;;;;;;;;6239394;23;20054;-72
2022/02/23 16:24:41;;;;;;;1.58;1.48;;;;;;;;;;6186271;23;20012;-72
2022/02/23 16:27:08;;;;;;;1.77;1.67;;;;;;;;;;6212925;23;20584;-73
2022/02/23 16:29:34;;;;;;;1.98;1.88;;;;;;;;;;6239706;23;20008;-73
2022/02/23 16:32:01;;;;;;;1.35;1.35;;;;;;;;;;6238711;23;20091;-72
2022/02/23 16:34:26;;;;;;;1.52;1.42;;;;;;;;;;6187303;23;20016;-72